createdAt,value
2022-12-01T05:42:10.166Z,15.27
2022-12-01T05:44:37.335Z,15.33
2022-12-01T05:47:04.451Z,14.37
2022-12-01T05:49:31.542Z,14.37
2022-12-01T05:51:58.606Z,17.00
2022-12-01T05:54:25.682Z,16.43
2022-12-01T05:56:52.761Z,16.13
2022-12-01T05:59:19.819Z,15.30
2022-12-01T06:01:47.019Z,15.47
2022-12-01T06:04:14.212Z,14.13
2022-12-01T06:06:41.368Z,14.33
2022-12-01T06:09:08.681Z,16.87
2022-12-01T06:11:35.847Z,15.73
2022-12-01T06:14:03.028Z,14.80
2022-12-01T06:16:30.169Z,15.70
2022-12-01T06:18:57.493Z,15.53
2022-12-01T06:21:24.635Z,16.70
2022-12-01T06:23:51.729Z,14.10
2022-12-01T06:26:18.956Z,15.60
2022-12-01T06:28:46.025Z,14.53
2022-12-01T06:31:13.600Z,14.03
2022-12-01T06:33:40.701Z,13.40
2022-12-01T06:36:08.036Z,13.83
2022-12-01T06:38:36.056Z,13.57
2022-12-01T06:41:03.538Z,15.43
2022-12-01T06:43:31.019Z,13.77
2022-12-01T06:46:02.007Z,14.03
2022-12-01T06:48:29.811Z,13.80
2022-12-01T06:51:00.204Z,14.83
2022-12-01T06:53:28.389Z,14.90
2022-12-01T06:55:55.917Z,12.83
2022-12-01T06:58:23.243Z,14.17
2022-12-01T07:00:52.336Z,14.23
2022-12-01T07:03:19.657Z,14.07
2022-12-01T07:05:55.776Z,13.93
2022-12-01T07:08:22.879Z,13.27
2022-12-01T07:10:57.039Z,13.33
2022-12-01T07:13:25.757Z,13.07
2022-12-01T07:15:55.849Z,13.80
2022-12-01T07:18:22.949Z,13.23
2022-12-01T07:20:50.213Z,14.20
2022-12-01T07:23:17.317Z,14.27
2022-12-01T07:25:44.405Z,13.43
2022-12-01T07:28:11.493Z,12.57
2022-12-01T07:30:38.621Z,13.77
2022-12-01T07:33:05.727Z,12.87
2022-12-01T07:35:32.806Z,13.93
2022-12-01T07:37:59.870Z,12.37
2022-12-01T07:40:27.052Z,15.40
2022-12-01T07:42:54.237Z,13.13
2022-12-01T07:45:21.301Z,12.37
2022-12-01T07:47:48.386Z,13.00
2022-12-01T07:50:15.511Z,13.90
2022-12-01T07:52:42.646Z,13.57
2022-12-01T07:55:09.847Z,13.00
2022-12-01T07:57:36.926Z,14.33
2022-12-01T08:00:04.250Z,13.57
2022-12-01T08:02:31.459Z,15.67
2022-12-01T08:04:58.677Z,13.97
2022-12-01T08:07:29.692Z,14.60
2022-12-01T08:09:57.155Z,14.93
2022-12-01T08:12:24.298Z,15.00
2022-12-01T08:14:51.366Z,15.73
2022-12-01T08:17:18.433Z,15.80
2022-12-01T08:19:45.502Z,13.47
2022-12-01T08:22:12.616Z,16.50
2022-12-01T08:24:39.683Z,15.70
2022-12-01T08:27:06.759Z,14.63
2022-12-01T08:29:35.749Z,13.70
2022-12-01T08:32:02.918Z,15.07
2022-12-01T08:34:30.058Z,13.50
2022-12-01T08:36:57.131Z,14.67
2022-12-01T08:39:24.246Z,15.47
2022-12-01T08:41:51.360Z,13.50
2022-12-01T08:44:18.504Z,14.10
2022-12-01T08:46:45.706Z,11.50
2022-12-01T08:49:12.839Z,14.57
2022-12-01T08:51:39.921Z,13.87
2022-12-01T08:54:07.021Z,12.77
2022-12-01T08:56:38.419Z,13.20
2022-12-01T08:59:05.922Z,12.07
2022-12-01T09:01:34.985Z,12.07
2022-12-01T09:04:06.486Z,11.87
2022-12-01T09:06:35.830Z,13.23
2022-12-01T09:09:02.941Z,11.43
2022-12-01T09:11:30.067Z,11.40
2022-12-01T09:13:57.144Z,11.87
2022-12-01T09:16:24.326Z,11.50
2022-12-01T09:18:51.472Z,11.90
2022-12-01T09:21:19.693Z,12.70
2022-12-01T09:23:47.053Z,11.70
2022-12-01T09:26:18.145Z,10.50
2022-12-01T09:28:45.676Z,10.23
2022-12-01T09:31:13.361Z,11.40
2022-12-01T09:33:40.558Z,10.57
2022-12-01T09:36:08.459Z,10.40
2022-12-01T09:38:37.005Z,10.07
2022-12-01T09:41:25.532Z,10.23
2022-12-01T09:44:02.144Z,9.77
2022-12-01T09:46:31.505Z,11.07
2022-12-01T09:48:59.545Z,9.17
2022-12-01T09:51:29.021Z,9.63
2022-12-01T09:53:57.675Z,10.30
2022-12-01T09:56:29.643Z,10.63
2022-12-01T09:58:59.112Z,9.77
2022-12-01T10:01:39.448Z,10.20
2022-12-01T10:04:18.349Z,10.57
2022-12-01T10:06:59.089Z,8.77
2022-12-01T10:09:37.250Z,9.47
2022-12-01T10:12:27.537Z,9.77
2022-12-01T10:14:57.085Z,9.43
2022-12-01T10:17:36.364Z,8.30
2022-12-01T10:20:22.293Z,9.40
2022-12-01T10:23:09.661Z,8.97
2022-12-01T10:26:03.147Z,9.27
2022-12-01T10:28:30.218Z,8.70
2022-12-01T10:31:01.298Z,9.60
2022-12-01T10:33:33.151Z,10.83
2022-12-01T10:36:00.300Z,9.90
2022-12-01T10:38:30.270Z,9.47
2022-12-01T10:40:59.817Z,8.90
2022-12-01T10:43:30.358Z,9.03
2022-12-01T10:45:58.394Z,9.10
2022-12-01T10:48:25.667Z,10.70
2022-12-01T10:50:57.507Z,10.00
2022-12-01T10:53:25.325Z,10.63
2022-12-01T10:56:02.481Z,10.90
2022-12-01T10:58:29.566Z,10.47
2022-12-01T11:01:00.081Z,9.67
2022-12-01T11:03:29.402Z,11.50
2022-12-01T11:06:01.026Z,10.40
2022-12-01T11:08:33.994Z,9.23
2022-12-01T11:11:01.820Z,10.37
2022-12-01T11:13:29.901Z,9.37
2022-12-01T11:16:01.204Z,9.37
2022-12-01T11:18:28.259Z,9.10
2022-12-01T11:21:07.391Z,9.07
2022-12-01T11:23:38.299Z,8.83
2022-12-01T11:26:14.346Z,9.07
2022-12-01T11:28:44.159Z,9.43
2022-12-01T11:31:11.711Z,10.10
2022-12-01T11:33:50.769Z,8.67
2022-12-01T11:36:35.439Z,9.10
2022-12-01T11:39:03.302Z,8.83
2022-12-01T11:41:37.959Z,9.50
2022-12-01T11:44:17.165Z,9.90
2022-12-01T11:47:07.726Z,10.27
2022-12-01T11:49:46.916Z,8.77
2022-12-01T11:52:27.482Z,10.43
2022-12-01T11:54:57.644Z,9.03
2022-12-01T11:57:34.207Z,9.30
2022-12-01T12:00:02.275Z,9.03
2022-12-01T12:02:29.339Z,7.80
2022-12-01T12:05:15.008Z,8.20
2022-12-01T12:08:00.620Z,8.10
2022-12-01T12:10:33.615Z,7.20
2022-12-01T12:13:11.546Z,8.63
2022-12-01T12:15:38.793Z,10.37
2022-12-01T12:18:12.178Z,8.00
2022-12-01T12:20:40.903Z,7.90
2022-12-01T12:23:13.718Z,7.43
2022-12-01T12:25:59.348Z,7.53
2022-12-01T12:28:45.386Z,7.73
2022-12-01T12:31:39.432Z,7.83
2022-12-01T12:34:25.264Z,7.00
2022-12-01T12:37:04.605Z,8.40
2022-12-01T12:39:41.117Z,7.17
2022-12-01T12:42:13.360Z,8.53
2022-12-01T12:44:50.972Z,6.90
2022-12-01T12:47:36.944Z,7.70
2022-12-01T12:50:10.851Z,7.57
2022-12-01T12:52:43.239Z,7.30
2022-12-01T12:55:16.398Z,7.43
2022-12-01T12:57:48.756Z,7.47
2022-12-01T13:00:16.093Z,7.47
2022-12-01T13:02:45.651Z,7.03
2022-12-01T13:05:31.706Z,6.30
2022-12-01T13:08:01.991Z,7.20
2022-12-01T13:10:33.214Z,7.20
2022-12-01T13:13:12.449Z,7.47
2022-12-01T13:15:40.391Z,7.47
2022-12-01T13:18:16.235Z,7.50
2022-12-01T13:20:44.050Z,7.37
2022-12-01T13:23:14.663Z,7.87
2022-12-01T13:25:42.130Z,6.10
2022-12-01T13:28:18.027Z,6.67
2022-12-01T13:30:58.629Z,6.93
2022-12-01T13:33:25.785Z,7.50
2022-12-01T13:36:15.404Z,7.93
2022-12-01T13:38:41.031Z,8.47
2022-12-01T13:41:22.019Z,7.57
2022-12-01T13:44:01.198Z,7.73
2022-12-01T13:46:30.822Z,7.80
2022-12-01T13:48:59.532Z,7.20
2022-12-01T13:51:27.061Z,8.20
2022-12-01T13:54:26.051Z,7.73
2022-12-01T13:57:01.633Z,7.83
2022-12-01T13:59:42.280Z,8.50
2022-12-01T14:02:18.288Z,8.23
2022-12-01T14:04:45.526Z,8.43
2022-12-01T14:07:20.632Z,7.93
2022-12-01T14:09:49.097Z,8.47
2022-12-01T14:12:30.217Z,7.90
2022-12-01T14:14:59.946Z,8.97
2022-12-01T14:17:37.883Z,8.13
2022-12-01T14:20:19.507Z,8.20
2022-12-01T14:22:48.573Z,9.77
2022-12-01T14:25:25.672Z,8.47
2022-12-01T14:27:54.065Z,8.67
2022-12-01T14:30:40.162Z,8.90
2022-12-01T14:33:26.013Z,8.40
2022-12-01T14:35:53.324Z,8.37
2022-12-01T14:38:20.448Z,9.33
2022-12-01T14:40:47.878Z,8.73
2022-12-01T14:43:33.900Z,8.53
2022-12-01T14:46:06.789Z,8.70
2022-12-01T14:48:38.170Z,8.57
2022-12-01T14:51:28.584Z,8.97
2022-12-01T14:53:56.503Z,8.50
2022-12-01T14:56:24.497Z,8.50
2022-12-01T14:58:56.083Z,8.60
2022-12-01T15:01:23.718Z,10.10
2022-12-01T15:03:52.300Z,8.63
2022-12-01T15:06:20.789Z,8.87
2022-12-01T15:09:25.579Z,8.37
2022-12-01T15:11:56.117Z,8.90
2022-12-01T15:14:23.219Z,8.00
2022-12-01T15:16:50.556Z,7.87
2022-12-01T15:19:24.901Z,8.30
2022-12-01T15:21:52.553Z,8.70
2022-12-01T15:24:26.945Z,8.33
2022-12-01T15:27:00.464Z,8.17
2022-12-01T15:29:48.973Z,8.03
2022-12-01T15:32:18.635Z,8.97
2022-12-01T15:34:46.660Z,12.80
2022-12-01T15:37:18.773Z,8.20
2022-12-01T15:39:47.445Z,9.17
2022-12-01T15:42:28.470Z,8.87
2022-12-01T15:45:16.043Z,7.93
2022-12-01T15:47:46.486Z,8.40
2022-12-01T15:50:29.627Z,8.40
2022-12-01T15:52:57.189Z,9.30
2022-12-01T15:55:37.323Z,8.50
2022-12-01T15:58:08.174Z,9.20
2022-12-01T16:00:35.766Z,8.47
2022-12-01T16:03:03.238Z,7.67
2022-12-01T16:05:33.806Z,9.50
2022-12-01T16:08:33.506Z,8.27
2022-12-01T16:11:17.053Z,9.10
2022-12-01T16:13:45.947Z,9.37
2022-12-01T16:16:31.016Z,8.50
2022-12-01T16:19:02.718Z,7.93
2022-12-01T16:21:32.244Z,8.53
2022-12-01T16:24:03.525Z,8.77
2022-12-01T16:26:31.002Z,8.43
2022-12-01T16:28:58.469Z,8.67
2022-12-01T16:31:26.790Z,8.73
2022-12-01T16:34:18.426Z,9.90
2022-12-01T16:36:51.187Z,9.30
2022-12-01T16:39:18.261Z,10.13
2022-12-01T16:41:46.806Z,8.77
2022-12-01T16:44:32.642Z,9.63
2022-12-01T16:46:59.784Z,9.17
2022-12-01T16:49:26.942Z,9.50
2022-12-01T16:51:56.902Z,9.20
2022-12-01T16:54:24.494Z,10.07
2022-12-01T16:56:51.571Z,9.97
2022-12-01T16:59:20.048Z,10.13
2022-12-01T17:01:47.226Z,10.47
2022-12-01T17:04:14.343Z,9.70
2022-12-01T17:06:41.714Z,10.50
2022-12-01T17:09:08.819Z,12.63
2022-12-01T17:11:36.084Z,9.83
2022-12-01T17:14:03.224Z,11.07
2022-12-01T17:16:30.462Z,10.27
2022-12-01T17:18:57.675Z,10.27
2022-12-01T17:21:24.760Z,10.00
2022-12-01T17:23:51.924Z,9.87
2022-12-01T17:26:20.378Z,11.23
2022-12-01T17:28:47.789Z,11.47
2022-12-01T17:31:15.246Z,10.83
2022-12-01T17:33:42.491Z,10.47
2022-12-01T17:36:13.262Z,11.73
2022-12-01T17:38:41.899Z,10.43
2022-12-01T17:41:10.335Z,10.60
2022-12-01T17:43:38.319Z,10.47
2022-12-01T17:46:06.785Z,10.80
2022-12-01T17:48:38.240Z,10.40
2022-12-01T17:51:05.669Z,10.70
2022-12-01T17:53:33.323Z,11.33
2022-12-01T17:56:00.473Z,11.47
2022-12-01T17:58:27.714Z,9.93
2022-12-01T18:00:55.007Z,10.53
2022-12-01T18:03:22.199Z,11.77
2022-12-01T18:05:56.701Z,11.60
2022-12-01T18:08:24.549Z,11.87
2022-12-01T18:10:51.751Z,11.87
2022-12-01T18:13:21.215Z,10.77
2022-12-01T18:15:48.634Z,10.57
2022-12-01T18:18:15.779Z,10.57
2022-12-01T18:20:43.608Z,10.93
2022-12-01T18:23:11.348Z,10.70
2022-12-01T18:25:39.028Z,11.63
2022-12-01T18:28:06.730Z,11.23
2022-12-01T18:30:34.184Z,10.63
2022-12-01T18:33:01.443Z,10.87
2022-12-01T18:35:31.880Z,11.03
2022-12-01T18:37:59.257Z,12.00
2022-12-01T18:40:26.399Z,10.07
2022-12-01T18:42:53.545Z,11.07
2022-12-01T18:45:21.518Z,9.77
2022-12-01T18:47:48.909Z,10.00
2022-12-01T18:50:16.018Z,10.33
2022-12-01T18:52:43.141Z,10.17
2022-12-01T18:55:10.397Z,10.00
2022-12-01T18:57:37.493Z,10.23
2022-12-01T19:00:06.067Z,9.90
2022-12-01T19:02:33.202Z,9.60
2022-12-01T19:05:00.400Z,11.10
2022-12-01T19:07:29.941Z,10.93
2022-12-01T19:09:57.283Z,10.23
2022-12-01T19:12:24.362Z,10.70
2022-12-01T19:14:53.091Z,11.10
2022-12-01T19:17:20.710Z,9.93
2022-12-01T19:19:47.812Z,10.20
2022-12-01T19:22:14.935Z,9.87
2022-12-01T19:24:44.854Z,10.50
2022-12-01T19:27:15.817Z,10.43
2022-12-01T19:29:42.985Z,10.17
2022-12-01T19:32:10.426Z,11.30
2022-12-01T19:34:37.554Z,10.50
2022-12-01T19:37:04.657Z,10.77
2022-12-01T19:39:32.003Z,10.67
2022-12-01T19:41:59.284Z,10.63
2022-12-01T19:44:26.430Z,11.30
2022-12-01T19:46:53.490Z,11.57
2022-12-01T19:49:20.576Z,11.63
2022-12-01T19:51:47.854Z,9.77
2022-12-01T19:54:16.781Z,11.70
2022-12-01T19:56:44.476Z,11.57
2022-12-01T19:59:13.220Z,11.00
2022-12-01T20:01:40.908Z,11.87
2022-12-01T20:04:08.175Z,10.17
2022-12-01T20:06:37.083Z,10.00
2022-12-01T20:09:05.406Z,9.60
2022-12-01T20:11:35.509Z,9.87
2022-12-01T20:14:03.506Z,10.67
2022-12-01T20:16:32.006Z,10.60
2022-12-01T20:19:03.213Z,10.50
2022-12-01T20:21:31.933Z,9.53
2022-12-01T20:24:03.529Z,10.23
2022-12-01T20:26:32.725Z,9.80
2022-12-01T20:29:01.238Z,9.20
2022-12-01T20:31:29.165Z,9.43
2022-12-01T20:33:57.883Z,11.33
2022-12-01T20:36:24.981Z,10.90
2022-12-01T20:38:52.487Z,11.23
2022-12-01T20:41:19.696Z,9.80
2022-12-01T20:43:46.937Z,9.93
2022-12-01T20:46:14.504Z,11.03
2022-12-01T20:48:41.695Z,11.23
2022-12-01T20:51:09.583Z,11.03
2022-12-01T20:53:36.755Z,11.80
2022-12-01T20:56:07.641Z,12.03
2022-12-01T20:58:37.699Z,10.67
2022-12-01T21:01:15.872Z,12.10
2022-12-01T21:03:43.749Z,11.67
2022-12-01T21:06:11.785Z,10.87
2022-12-01T21:08:39.259Z,10.30
2022-12-01T21:11:07.332Z,9.93
2022-12-01T21:13:43.684Z,11.00
2022-12-01T21:16:22.928Z,11.20
2022-12-01T21:18:50.039Z,10.57
2022-12-01T21:21:27.454Z,10.20
2022-12-01T21:24:10.666Z,11.73
2022-12-01T21:26:38.377Z,11.33
2022-12-01T21:29:17.876Z,11.07
2022-12-01T21:31:45.513Z,12.00
2022-12-01T21:34:18.448Z,10.30
2022-12-01T21:36:46.676Z,10.77
2022-12-01T21:39:15.129Z,11.10
2022-12-01T21:41:42.595Z,11.03
2022-12-01T21:44:18.540Z,10.83
2022-12-01T21:46:45.890Z,11.37
2022-12-01T21:49:20.446Z,10.33
2022-12-01T21:51:48.236Z,10.57
2022-12-01T21:54:20.897Z,10.93
2022-12-01T21:56:48.557Z,10.90
2022-12-01T21:59:22.881Z,11.10
2022-12-01T22:01:53.050Z,11.53
2022-12-01T22:04:21.459Z,10.67
2022-12-01T22:06:50.129Z,10.20
2022-12-01T22:09:20.698Z,11.57
2022-12-01T22:11:50.092Z,12.93
2022-12-01T22:14:34.488Z,9.83
2022-12-01T22:17:07.580Z,11.23
2022-12-01T22:19:36.104Z,10.97
2022-12-01T22:22:12.517Z,11.80
2022-12-01T22:24:49.805Z,11.33
2022-12-01T22:27:33.325Z,12.17
2022-12-01T22:30:00.380Z,11.27
2022-12-01T22:32:33.466Z,11.70
2022-12-01T22:35:17.162Z,11.23
2022-12-01T22:37:49.089Z,10.27
2022-12-01T22:40:34.490Z,10.93
2022-12-01T22:43:14.114Z,12.20
2022-12-01T22:45:41.326Z,11.20
2022-12-01T22:48:16.638Z,11.20
2022-12-01T22:50:48.668Z,11.40
2022-12-01T22:53:19.735Z,12.13
2022-12-01T22:55:46.800Z,11.80
2022-12-01T22:58:25.433Z,11.17
2022-12-01T23:00:53.357Z,11.33
2022-12-01T23:03:20.481Z,12.87
2022-12-01T23:05:48.900Z,12.17
2022-12-01T23:08:20.638Z,12.50
2022-12-01T23:10:47.765Z,11.83
2022-12-01T23:13:17.100Z,11.67
2022-12-01T23:15:48.510Z,12.47
2022-12-01T23:18:16.927Z,12.50
2022-12-01T23:20:45.147Z,12.40
2022-12-01T23:23:17.367Z,12.83
2022-12-01T23:25:44.742Z,12.83
2022-12-01T23:28:12.701Z,12.93
2022-12-01T23:30:41.115Z,12.37
2022-12-01T23:33:11.121Z,12.63
2022-12-01T23:35:48.658Z,13.10
2022-12-01T23:38:17.164Z,12.90
2022-12-01T23:40:44.493Z,11.70
2022-12-01T23:43:20.277Z,11.73
2022-12-01T23:45:48.827Z,12.90
2022-12-01T23:48:21.141Z,13.67
2022-12-01T23:50:50.135Z,15.43
2022-12-01T23:53:28.392Z,12.53
2022-12-01T23:55:56.218Z,13.23
2022-12-01T23:58:23.365Z,12.87
